createdAt,value
2019-03-24T00:00:03.518Z,991.8
2019-03-24T00:01:04.796Z,991.9
2019-03-24T00:02:08.455Z,991.8
2019-03-24T00:03:09.732Z,991.9
2019-03-24T00:04:10.982Z,991.9
2019-03-24T00:05:12.260Z,991.8
2019-03-24T00:06:13.561Z,991.8
2019-03-24T00:07:14.840Z,991.9
2019-03-24T00:08:16.097Z,991.9
2019-03-24T00:09:17.380Z,991.9
2019-03-24T00:10:18.694Z,991.9
2019-03-24T00:11:22.060Z,992
2019-03-24T00:12:23.339Z,991.9
2019-03-24T00:13:25.855Z,991.9
2019-03-24T00:14:29.207Z,992
2019-03-24T00:15:30.462Z,991.7
2019-03-24T00:16:33.946Z,992
2019-03-24T00:17:35.346Z,992
2019-03-24T00:18:36.599Z,991.8
2019-03-24T00:19:38.771Z,991.8
2019-03-24T00:20:40.045Z,991.7
2019-03-24T00:21:42.395Z,991.8
2019-03-24T00:22:43.931Z,991.8
2019-03-24T00:23:45.325Z,991.8
2019-03-24T00:24:46.714Z,991.5
2019-03-24T00:25:47.976Z,991.6
2019-03-24T00:26:49.298Z,991.7
2019-03-24T00:27:50.556Z,991.7
2019-03-24T00:28:51.824Z,991.7
2019-03-24T00:29:53.093Z,991.7
2019-03-24T00:30:54.353Z,991.7
2019-03-24T00:31:55.641Z,991.6
2019-03-24T00:32:56.911Z,991.7
2019-03-24T00:33:58.179Z,991.7
2019-03-24T00:34:59.435Z,991.6
2019-03-24T00:36:00.709Z,991.5
2019-03-24T00:37:02.045Z,991.7
2019-03-24T00:38:03.292Z,991.7
2019-03-24T00:39:04.835Z,991.7
2019-03-24T00:40:06.111Z,991.8
2019-03-24T00:41:07.374Z,991.7
2019-03-24T00:42:08.655Z,991.7
2019-03-24T00:43:09.893Z,991.7
2019-03-24T00:44:11.147Z,991.6
2019-03-24T00:45:12.435Z,991.7
2019-03-24T00:46:13.725Z,991.7
2019-03-24T00:47:15.249Z,991.5
2019-03-24T00:48:16.504Z,991.6
2019-03-24T00:49:17.783Z,991.7
2019-03-24T00:50:19.032Z,991.6
2019-03-24T00:51:20.291Z,991.6
2019-03-24T00:52:21.711Z,991.7
2019-03-24T00:53:22.967Z,991.6
2019-03-24T00:54:24.215Z,991.5
2019-03-24T00:55:25.855Z,991.6
2019-03-24T00:56:27.109Z,991.7
2019-03-24T00:57:29.548Z,991.7
2019-03-24T00:58:31.113Z,991.7
2019-03-24T00:59:32.371Z,991.6
2019-03-24T01:00:33.651Z,991.6
2019-03-24T01:01:34.901Z,991.5
2019-03-24T01:02:38.321Z,991.5
2019-03-24T01:03:39.569Z,991.5
2019-03-24T01:04:40.841Z,991.5
2019-03-24T01:05:42.088Z,991.4
2019-03-24T01:06:43.347Z,991.4
2019-03-24T01:07:44.671Z,991.4
2019-03-24T01:08:45.944Z,991.4
2019-03-24T01:09:47.196Z,991.4
2019-03-24T01:10:48.492Z,991.5
2019-03-24T01:11:49.827Z,991.5
2019-03-24T01:12:51.121Z,991.5
2019-03-24T01:13:52.417Z,991.5
2019-03-24T01:14:53.661Z,991.5
2019-03-24T01:15:56.117Z,991.5
2019-03-24T01:16:57.369Z,991.5
2019-03-24T01:18:05.945Z,991.5
2019-03-24T01:19:09.677Z,991.4
2019-03-24T01:20:10.970Z,991.4
2019-03-24T01:21:12.241Z,991.4
2019-03-24T01:22:13.493Z,991.4
2019-03-24T01:23:14.823Z,991.5
2019-03-24T01:24:16.078Z,991.4
2019-03-24T01:25:17.309Z,991.3
2019-03-24T01:26:18.588Z,991.4
2019-03-24T01:27:19.835Z,991.5
2019-03-24T01:28:21.119Z,991.2
2019-03-24T01:29:22.378Z,991.5
2019-03-24T01:30:23.634Z,991.5
2019-03-24T01:31:24.868Z,991.4
2019-03-24T01:32:26.612Z,991.5
2019-03-24T01:33:27.889Z,991.6
2019-03-24T01:34:29.137Z,991.5
2019-03-24T01:35:30.392Z,991.5
2019-03-24T01:36:31.638Z,991.4
2019-03-24T01:37:32.890Z,991.5
2019-03-24T01:38:35.253Z,991.5
2019-03-24T01:39:36.500Z,991.5
2019-03-24T01:40:37.753Z,991.5
2019-03-24T01:41:39.256Z,991.4
2019-03-24T01:42:40.519Z,991.5
2019-03-24T01:43:41.834Z,991.5
2019-03-24T01:44:43.108Z,991.4
2019-03-24T01:45:44.392Z,991.5
2019-03-24T01:46:45.644Z,991.5
2019-03-24T01:47:46.892Z,991.3
2019-03-24T01:48:48.173Z,991.3
2019-03-24T01:49:49.423Z,991.1
2019-03-24T01:50:50.674Z,991.3
2019-03-24T01:51:52.922Z,991.4
2019-03-24T01:52:55.208Z,991.4
2019-03-24T01:53:56.550Z,991.3
2019-03-24T01:54:57.788Z,991.3
2019-03-24T01:55:59.092Z,991.3
2019-03-24T01:57:00.340Z,991.3
2019-03-24T01:58:01.600Z,991.3
2019-03-24T01:59:02.876Z,991.2
2019-03-24T02:00:04.112Z,991.2
2019-03-24T02:01:05.367Z,991.3
2019-03-24T02:02:06.631Z,991.2
2019-03-24T02:03:07.908Z,991.3
2019-03-24T02:04:09.232Z,991.3
2019-03-24T02:05:10.513Z,991.3
2019-03-24T02:06:11.758Z,991.3
2019-03-24T02:07:13.004Z,991.3
2019-03-24T02:08:14.301Z,991.3
2019-03-24T02:09:16.078Z,991.3
2019-03-24T02:10:17.338Z,991.3
2019-03-24T02:11:18.606Z,991.3
2019-03-24T02:12:19.868Z,991.2
2019-03-24T02:13:21.096Z,991.3
2019-03-24T02:14:22.376Z,990.8
2019-03-24T02:15:23.642Z,991.4
2019-03-24T02:16:24.896Z,991.3
2019-03-24T02:17:26.144Z,991.3
2019-03-24T02:18:27.442Z,991.3
2019-03-24T02:19:28.736Z,991.3
2019-03-24T02:20:29.973Z,991.3
2019-03-24T02:21:31.300Z,991.2
2019-03-24T02:22:32.760Z,991.2
2019-03-24T02:23:34.038Z,991.2
2019-03-24T02:24:35.370Z,991.3
2019-03-24T02:25:36.604Z,991.3
2019-03-24T02:26:37.864Z,991.2
2019-03-24T02:27:39.117Z,991.2
2019-03-24T02:28:40.419Z,991.2
2019-03-24T02:29:41.688Z,991.1
2019-03-24T02:30:42.943Z,991.1
2019-03-24T02:31:44.190Z,991.1
2019-03-24T02:32:45.432Z,990.9
2019-03-24T02:33:46.700Z,991.1
2019-03-24T02:34:48.114Z,991.2
2019-03-24T02:35:49.406Z,991.2
2019-03-24T02:36:50.676Z,991.1
2019-03-24T02:37:51.931Z,991.1
2019-03-24T02:38:55.366Z,991
2019-03-24T02:39:57.112Z,991.1
2019-03-24T02:40:58.369Z,991.1
2019-03-24T02:41:59.634Z,991.1
2019-03-24T02:43:00.988Z,991
2019-03-24T02:44:02.278Z,991.1
2019-03-24T02:45:03.570Z,991.1
2019-03-24T02:46:04.836Z,991.1
2019-03-24T02:47:09.155Z,991
2019-03-24T02:48:10.429Z,991
2019-03-24T02:49:11.724Z,991.1
2019-03-24T02:50:13.016Z,991.1
2019-03-24T02:51:14.266Z,991
2019-03-24T02:52:15.526Z,991
2019-03-24T02:53:16.807Z,991
2019-03-24T02:54:18.091Z,991.1
2019-03-24T02:55:19.436Z,991
2019-03-24T02:56:20.688Z,991
2019-03-24T02:57:21.950Z,991.1
2019-03-24T02:58:23.211Z,991
2019-03-24T02:59:24.474Z,991
2019-03-24T03:00:25.758Z,991.1
2019-03-24T03:01:27.002Z,991
2019-03-24T03:02:28.449Z,991
2019-03-24T03:03:32.198Z,991
2019-03-24T03:04:33.445Z,990.7
2019-03-24T03:05:34.738Z,991.1
2019-03-24T03:06:36.030Z,991.1
2019-03-24T03:07:37.314Z,991.1
2019-03-24T03:08:39.602Z,991
2019-03-24T03:09:40.846Z,991.1
2019-03-24T03:10:43.389Z,990.9
2019-03-24T03:11:44.632Z,990.8
2019-03-24T03:12:48.484Z,990.8
2019-03-24T03:13:49.752Z,990.8
2019-03-24T03:14:53.321Z,990.9
2019-03-24T03:15:54.616Z,990.9
2019-03-24T03:16:55.856Z,990.8
2019-03-24T03:17:57.468Z,990.8
2019-03-24T03:18:58.730Z,990.9
2019-03-24T03:20:00.016Z,990.8
2019-03-24T03:21:01.306Z,990.8
2019-03-24T03:22:02.557Z,990.8
2019-03-24T03:23:08.009Z,990.8
2019-03-24T03:24:09.280Z,990.8
2019-03-24T03:25:10.538Z,990.7
2019-03-24T03:26:11.851Z,990.6
2019-03-24T03:27:13.138Z,990.8
2019-03-24T03:28:14.388Z,990.8
2019-03-24T03:29:15.664Z,990.7
2019-03-24T03:30:16.913Z,990.8
2019-03-24T03:31:19.250Z,990.7
2019-03-24T03:32:20.658Z,990.8
2019-03-24T03:33:21.934Z,990.7
2019-03-24T03:34:24.399Z,990.7
2019-03-24T03:35:25.690Z,990.6
2019-03-24T03:36:27.050Z,990.5
2019-03-24T03:37:28.322Z,990.7
2019-03-24T03:38:30.951Z,990.6
2019-03-24T03:39:32.259Z,990.8
2019-03-24T03:40:33.565Z,990.7
2019-03-24T03:41:35.348Z,990.6
2019-03-24T03:42:36.616Z,990.7
2019-03-24T03:43:37.912Z,990.5
2019-03-24T03:44:39.180Z,990.5
2019-03-24T03:45:40.455Z,990.5
2019-03-24T03:46:53.336Z,990.6
2019-03-24T03:47:54.763Z,990.6
2019-03-24T03:48:56.035Z,990.6
2019-03-24T03:49:57.579Z,990.6
2019-03-24T03:50:58.838Z,990.6
2019-03-24T03:52:00.150Z,990.5
2019-03-24T03:53:01.418Z,990.5
2019-03-24T03:54:02.716Z,990.5
2019-03-24T03:55:06.176Z,990.5
2019-03-24T03:56:07.444Z,990.6
2019-03-24T03:57:08.725Z,990.6
2019-03-24T03:58:09.995Z,990.5
2019-03-24T03:59:11.271Z,990.6
2019-03-24T04:00:12.527Z,990.6
2019-03-24T04:01:13.869Z,990.5
2019-03-24T04:02:15.198Z,990.5
2019-03-24T04:03:16.449Z,990.5
2019-03-24T04:04:17.732Z,990.4
2019-03-24T04:05:18.995Z,990.3
2019-03-24T04:06:20.251Z,990.4
2019-03-24T04:07:22.907Z,990.5
2019-03-24T04:08:24.166Z,990.4
2019-03-24T04:09:25.469Z,990.3
2019-03-24T04:10:26.727Z,990.2
2019-03-24T04:11:31.193Z,990.3
2019-03-24T04:12:33.568Z,990.3
2019-03-24T04:13:34.846Z,990.3
2019-03-24T04:14:36.506Z,990.3
2019-03-24T04:15:38.231Z,990.3
2019-03-24T04:16:39.515Z,990.2
2019-03-24T04:17:40.787Z,990.2
2019-03-24T04:18:42.070Z,990.1
2019-03-24T04:19:43.331Z,990.3
2019-03-24T04:20:44.587Z,990.2
2019-03-24T04:21:45.843Z,990.2
2019-03-24T04:22:47.154Z,990.3
2019-03-24T04:23:48.407Z,990.2
2019-03-24T04:24:49.725Z,990.1
2019-03-24T04:25:50.995Z,990.2
2019-03-24T04:26:52.257Z,990.2
2019-03-24T04:27:53.787Z,990.1
2019-03-24T04:28:55.061Z,990
2019-03-24T04:29:56.316Z,990.1
2019-03-24T04:30:57.586Z,990.1
2019-03-24T04:31:58.878Z,990.1
2019-03-24T04:33:01.563Z,990
2019-03-24T04:34:05.309Z,990.1
2019-03-24T04:35:06.574Z,990.2
2019-03-24T04:36:07.829Z,990.1
2019-03-24T04:37:09.081Z,990.2
2019-03-24T04:38:10.357Z,990
2019-03-24T04:39:11.627Z,990.2
2019-03-24T04:40:12.873Z,990.2
2019-03-24T04:41:14.141Z,990.2
2019-03-24T04:42:15.392Z,990.2
2019-03-24T04:43:17.200Z,990.2
2019-03-24T04:44:18.441Z,990.3
2019-03-24T04:45:19.687Z,990.2
2019-03-24T04:46:20.930Z,990.2
2019-03-24T04:47:22.189Z,990.2
2019-03-24T04:48:23.471Z,990.2
2019-03-24T04:49:24.728Z,990.2
2019-03-24T04:50:32.035Z,990.2
2019-03-24T04:51:33.295Z,990.2
2019-03-24T04:52:35.581Z,990.1
2019-03-24T04:53:36.865Z,990.1
2019-03-24T04:54:38.173Z,990.2
2019-03-24T04:55:39.430Z,990.2
2019-03-24T04:56:40.671Z,990.2
2019-03-24T04:57:41.913Z,990.2
2019-03-24T04:58:43.233Z,990.2
2019-03-24T04:59:44.494Z,990.3
2019-03-24T05:00:45.776Z,990.1
2019-03-24T05:01:47.074Z,990.2
2019-03-24T05:02:48.331Z,990.1
2019-03-24T05:03:49.602Z,990.1
2019-03-24T05:04:50.852Z,990.1
2019-03-24T05:05:52.102Z,990.2
2019-03-24T05:06:53.342Z,990.2
2019-03-24T05:07:54.614Z,990.2
2019-03-24T05:08:55.880Z,990.2
2019-03-24T05:09:57.147Z,990.1
2019-03-24T05:10:58.411Z,990.2
2019-03-24T05:11:59.656Z,990.1
2019-03-24T05:13:00.886Z,990.1
2019-03-24T05:14:03.352Z,990
2019-03-24T05:15:04.590Z,990
2019-03-24T05:16:05.829Z,990.1
2019-03-24T05:17:07.092Z,990.2
2019-03-24T05:18:08.376Z,990
2019-03-24T05:19:09.659Z,990
2019-03-24T05:20:10.963Z,990
2019-03-24T05:21:12.217Z,990
2019-03-24T05:22:13.464Z,990.1
2019-03-24T05:23:14.710Z,990.1
2019-03-24T05:24:15.984Z,990.1
2019-03-24T05:25:17.241Z,990.2
2019-03-24T05:26:18.488Z,990.1
2019-03-24T05:27:19.736Z,990.2
2019-03-24T05:28:20.976Z,990.1
2019-03-24T05:29:22.316Z,990.1
2019-03-24T05:30:24.894Z,990.1
2019-03-24T05:31:26.142Z,990.1
2019-03-24T05:32:27.394Z,990
2019-03-24T05:33:28.646Z,990.1
2019-03-24T05:34:29.929Z,990
2019-03-24T05:35:31.184Z,990
2019-03-24T05:36:32.438Z,990
2019-03-24T05:37:33.682Z,990
2019-03-24T05:38:34.930Z,990
2019-03-24T05:39:36.234Z,989.9
2019-03-24T05:40:37.482Z,990
2019-03-24T05:41:38.716Z,990.1
2019-03-24T05:42:39.964Z,990
2019-03-24T05:43:41.226Z,990.1
2019-03-24T05:44:42.924Z,990
2019-03-24T05:45:44.180Z,990.1
2019-03-24T05:46:45.423Z,990
2019-03-24T05:47:46.708Z,989.7
2019-03-24T05:48:47.960Z,990
2019-03-24T05:49:49.592Z,990
2019-03-24T05:50:50.829Z,990.1
2019-03-24T05:51:52.417Z,990.1
2019-03-24T05:52:53.737Z,990
2019-03-24T05:53:54.996Z,990
2019-03-24T05:54:56.275Z,990
2019-03-24T05:55:57.567Z,990
2019-03-24T05:56:58.834Z,990
2019-03-24T05:58:00.074Z,990
2019-03-24T05:59:01.360Z,989.7
2019-03-24T06:00:02.828Z,989.9
2019-03-24T06:01:04.077Z,990
2019-03-24T06:02:05.336Z,990
2019-03-24T06:03:06.596Z,989.9
2019-03-24T06:04:07.842Z,990
2019-03-24T06:05:09.144Z,990
2019-03-24T06:06:10.404Z,990
2019-03-24T06:07:11.645Z,990
2019-03-24T06:08:12.892Z,990
2019-03-24T06:09:14.136Z,989.7
2019-03-24T06:10:15.426Z,989.9
2019-03-24T06:11:16.680Z,990
2019-03-24T06:12:17.960Z,990
2019-03-24T06:13:19.210Z,989.9
2019-03-24T06:14:20.472Z,989.9
2019-03-24T06:15:21.804Z,989.9
2019-03-24T06:16:23.101Z,990
2019-03-24T06:17:24.358Z,990
2019-03-24T06:18:25.620Z,990
2019-03-24T06:19:26.884Z,989.8
2019-03-24T06:20:28.168Z,989.9
2019-03-24T06:21:29.418Z,989.9
2019-03-24T06:22:30.686Z,989.8
2019-03-24T06:23:31.953Z,989.9
2019-03-24T06:24:33.210Z,989.9
2019-03-24T06:25:35.785Z,989.9
2019-03-24T06:26:37.078Z,989.9
2019-03-24T06:27:38.352Z,989.8
2019-03-24T06:28:39.605Z,989.9
2019-03-24T06:29:43.030Z,990
2019-03-24T06:30:44.348Z,990
2019-03-24T06:31:45.767Z,990
2019-03-24T06:32:47.020Z,990
2019-03-24T06:33:48.254Z,990
2019-03-24T06:34:49.525Z,990
2019-03-24T06:35:50.826Z,989.9
2019-03-24T06:36:52.094Z,989.9
2019-03-24T06:37:53.353Z,989.9
2019-03-24T06:38:54.628Z,990
2019-03-24T06:39:55.894Z,990
2019-03-24T06:40:57.196Z,989.9
2019-03-24T06:41:58.459Z,990
2019-03-24T06:42:59.704Z,989.9
2019-03-24T06:44:00.984Z,989.9
2019-03-24T06:45:02.240Z,989.8
2019-03-24T06:46:03.554Z,989.8
2019-03-24T06:47:04.794Z,989.8
2019-03-24T06:48:07.178Z,989.8
2019-03-24T06:49:08.453Z,989.9
2019-03-24T06:50:09.707Z,990
2019-03-24T06:51:11.028Z,989.8
2019-03-24T06:52:12.287Z,989.9
2019-03-24T06:53:13.551Z,989.9
2019-03-24T06:54:14.795Z,989.9
2019-03-24T06:55:16.109Z,989.9
2019-03-24T06:56:17.403Z,990
2019-03-24T06:57:18.643Z,989.8
2019-03-24T06:58:19.907Z,989.9
2019-03-24T06:59:21.168Z,990
2019-03-24T07:00:22.436Z,990
2019-03-24T07:01:26.178Z,990
2019-03-24T07:02:27.445Z,989.9
2019-03-24T07:03:28.712Z,990
2019-03-24T07:04:31.204Z,990
2019-03-24T07:05:34.886Z,990
2019-03-24T07:06:37.220Z,990
2019-03-24T07:07:39.830Z,990
2019-03-24T07:08:41.161Z,990
2019-03-24T07:09:42.427Z,989.9
2019-03-24T07:10:43.703Z,989.9
2019-03-24T07:11:44.985Z,990
2019-03-24T07:12:46.244Z,989.9
2019-03-24T07:13:47.505Z,990
2019-03-24T07:14:48.760Z,990
2019-03-24T07:15:50.014Z,990
2019-03-24T07:16:51.510Z,990.1
2019-03-24T07:17:52.760Z,990.2
2019-03-24T07:18:54.031Z,990.3
2019-03-24T07:19:55.307Z,990.4
2019-03-24T07:20:58.035Z,990.4
2019-03-24T07:21:59.369Z,990.4
2019-03-24T07:23:00.642Z,990.3
2019-03-24T07:24:02.147Z,990.4
2019-03-24T07:25:05.912Z,990.3
2019-03-24T07:26:07.179Z,990.3
2019-03-24T07:27:08.481Z,990.4
2019-03-24T07:28:12.157Z,990.3
2019-03-24T07:29:18.385Z,990.4
2019-03-24T07:30:19.693Z,990.4
2019-03-24T07:31:20.946Z,990.3
2019-03-24T07:32:22.275Z,990.4
2019-03-24T07:33:23.549Z,990.3
2019-03-24T07:34:27.127Z,990.4
2019-03-24T07:35:31.110Z,990.3
2019-03-24T07:36:32.384Z,990.3
2019-03-24T07:37:33.684Z,990.4
2019-03-24T07:38:34.949Z,990.3
2019-03-24T07:39:38.269Z,990.2
2019-03-24T07:40:39.517Z,990.3
2019-03-24T07:41:42.937Z,990.2
2019-03-24T07:42:44.641Z,990.3
2019-03-24T07:43:45.905Z,990.3
2019-03-24T07:44:47.217Z,990.3
2019-03-24T07:45:48.469Z,990.3
2019-03-24T07:46:49.733Z,990.3
2019-03-24T07:47:53.413Z,990.3
2019-03-24T07:48:54.667Z,990.2
2019-03-24T07:49:55.936Z,990.2
2019-03-24T07:50:57.377Z,990.2
2019-03-24T07:51:58.935Z,990.2
2019-03-24T07:53:00.283Z,990.2
2019-03-24T07:54:01.541Z,990.2
2019-03-24T07:55:02.815Z,990.2
2019-03-24T07:56:05.205Z,990.3
2019-03-24T07:57:06.455Z,990.1
2019-03-24T07:58:07.763Z,990
2019-03-24T07:59:09.001Z,990.2
2019-03-24T08:00:10.275Z,990.1
2019-03-24T08:01:11.544Z,990.2
2019-03-24T08:02:12.799Z,990.1
2019-03-24T08:03:14.117Z,990.1
2019-03-24T08:04:15.624Z,990.1
2019-03-24T08:05:16.899Z,990.2
2019-03-24T08:06:18.474Z,990.2
2019-03-24T08:07:19.747Z,990.1
2019-03-24T08:08:21.071Z,990
2019-03-24T08:09:22.337Z,990
2019-03-24T08:10:23.595Z,990
2019-03-24T08:11:29.307Z,990.1
2019-03-24T08:12:30.573Z,990.1
2019-03-24T08:13:31.861Z,990.1
2019-03-24T08:14:33.235Z,990.1
2019-03-24T08:15:34.507Z,990.1
2019-03-24T08:16:35.795Z,990.1
2019-03-24T08:17:37.110Z,990
2019-03-24T08:18:38.774Z,990
2019-03-24T08:19:40.017Z,989.9
2019-03-24T08:20:41.657Z,990
2019-03-24T08:21:43.023Z,990
2019-03-24T08:22:45.710Z,990
2019-03-24T08:23:47.253Z,990
2019-03-24T08:24:49.107Z,989.9
2019-03-24T08:25:51.271Z,989.9
2019-03-24T08:26:53.873Z,989.9
2019-03-24T08:27:55.199Z,990
2019-03-24T08:28:56.487Z,989.9
2019-03-24T08:30:00.318Z,989.9
2019-03-24T08:31:01.631Z,989.9
2019-03-24T08:32:02.902Z,989.9
2019-03-24T08:33:04.189Z,989.8
2019-03-24T08:34:05.503Z,989.8
2019-03-24T08:35:06.771Z,989.8
2019-03-24T08:36:08.029Z,989.8
2019-03-24T08:37:09.301Z,989.8
2019-03-24T08:38:10.553Z,989.8
2019-03-24T08:39:13.850Z,989.8
2019-03-24T08:40:15.109Z,989.2
2019-03-24T08:41:16.512Z,989.8
2019-03-24T08:42:19.954Z,989.8
2019-03-24T08:43:22.334Z,989.8
2019-03-24T08:44:23.629Z,989.7
2019-03-24T08:45:29.325Z,989.7
2019-03-24T08:46:30.633Z,989.7
2019-03-24T08:47:31.880Z,989.7
2019-03-24T08:48:41.703Z,989.7
2019-03-24T08:49:43.890Z,989.7
2019-03-24T08:50:46.279Z,989.7
2019-03-24T08:51:50.264Z,989.6
2019-03-24T08:52:52.589Z,989.7
2019-03-24T08:53:53.847Z,989.7
2019-03-24T08:54:55.569Z,989.8
2019-03-24T08:55:59.277Z,989.7
2019-03-24T08:57:00.682Z,989.7
2019-03-24T08:58:01.998Z,989.8
2019-03-24T08:59:03.297Z,989.7
2019-03-24T09:00:04.908Z,989.7
2019-03-24T09:01:06.169Z,989.7
2019-03-24T09:02:08.497Z,989.7
2019-03-24T09:03:12.197Z,989.7
2019-03-24T09:04:13.460Z,989.6
2019-03-24T09:05:15.034Z,989.6
2019-03-24T09:06:16.913Z,989.6
2019-03-24T09:07:18.306Z,989.7
2019-03-24T09:08:19.577Z,989.6
2019-03-24T09:09:20.862Z,989.6
2019-03-24T09:10:24.514Z,989.6
2019-03-24T09:11:32.030Z,989.6
2019-03-24T09:12:33.587Z,989.6
2019-03-24T09:13:35.053Z,989.6
2019-03-24T09:14:36.557Z,989.6
2019-03-24T09:15:37.844Z,989.6
2019-03-24T09:16:39.110Z,989.6
2019-03-24T09:17:42.093Z,989.5
2019-03-24T09:18:53.858Z,989.6
2019-03-24T09:19:57.465Z,989.5
2019-03-24T09:20:59.388Z,989.5
2019-03-24T09:22:00.646Z,989.4
2019-03-24T09:23:03.476Z,989.4
2019-03-24T09:24:04.778Z,989.4
2019-03-24T09:25:08.114Z,989.4
2019-03-24T09:26:09.412Z,989.5
2019-03-24T09:27:10.710Z,989.4
2019-03-24T09:28:12.908Z,989.4
2019-03-24T09:29:14.462Z,989.3
2019-03-24T09:30:15.990Z,989.3
2019-03-24T09:31:17.302Z,989.4
2019-03-24T09:32:22.657Z,989.4
2019-03-24T09:33:23.937Z,989.2
2019-03-24T09:34:26.245Z,989.3
2019-03-24T09:35:27.518Z,989.3
2019-03-24T09:36:30.848Z,989.2
2019-03-24T09:37:37.544Z,989.2
2019-03-24T09:38:38.852Z,989.2
2019-03-24T09:39:40.146Z,989.1
2019-03-24T09:40:41.414Z,989.2
2019-03-24T09:41:45.088Z,989.2
2019-03-24T09:42:46.350Z,989.2
2019-03-24T09:43:48.952Z,989.1
2019-03-24T09:44:50.301Z,989.2
2019-03-24T09:45:51.550Z,989.2
2019-03-24T09:46:52.875Z,989.2
2019-03-24T09:47:54.394Z,989.2
2019-03-24T09:49:03.804Z,989.1
2019-03-24T09:50:06.302Z,989.1
2019-03-24T09:51:07.596Z,989.1
2019-03-24T09:52:09.406Z,989.1
2019-03-24T09:53:10.696Z,989
2019-03-24T09:54:12.426Z,989.1
2019-03-24T09:55:29.140Z,989.1
2019-03-24T09:56:31.510Z,988.9
2019-03-24T09:57:33.406Z,988.9
2019-03-24T09:58:36.905Z,989
2019-03-24T09:59:38.388Z,989
2019-03-24T10:00:39.661Z,989.1
2019-03-24T10:01:40.922Z,989.1
2019-03-24T10:02:43.476Z,989.1
2019-03-24T10:03:44.740Z,989.1
2019-03-24T10:04:46.136Z,989.1
2019-03-24T10:05:50.409Z,989.1
2019-03-24T10:06:59.336Z,989
2019-03-24T10:08:03.182Z,989.1
2019-03-24T10:09:04.537Z,989.1
2019-03-24T10:10:06.010Z,989.1
2019-03-24T10:11:07.288Z,989.1
2019-03-24T10:12:09.782Z,989
2019-03-24T10:13:12.332Z,988.9
2019-03-24T10:14:13.607Z,989
2019-03-24T10:15:14.887Z,989
2019-03-24T10:16:16.140Z,989
2019-03-24T10:17:17.632Z,989
2019-03-24T10:18:18.948Z,989
2019-03-24T10:19:20.215Z,988.8
2019-03-24T10:20:21.576Z,989
2019-03-24T10:21:22.836Z,989
2019-03-24T10:22:26.192Z,989
2019-03-24T10:23:27.541Z,989
2019-03-24T10:24:30.942Z,989
2019-03-24T10:25:33.262Z,989
2019-03-24T10:26:34.558Z,989
2019-03-24T10:27:37.994Z,989
2019-03-24T10:28:39.300Z,989
2019-03-24T10:29:40.561Z,989
2019-03-24T10:30:41.808Z,988.9
2019-03-24T10:31:45.560Z,988.9
2019-03-24T10:32:46.842Z,989
2019-03-24T10:33:48.286Z,988.9
2019-03-24T10:34:49.619Z,989
2019-03-24T10:35:50.881Z,988.9
2019-03-24T10:36:52.141Z,988.9
2019-03-24T10:37:53.421Z,989
2019-03-24T10:38:57.191Z,988.9
2019-03-24T10:39:59.659Z,988.9
2019-03-24T10:41:02.968Z,988.9
2019-03-24T10:42:04.245Z,988.8
2019-03-24T10:43:05.509Z,988.9
2019-03-24T10:44:06.795Z,988.9
2019-03-24T10:45:16.251Z,988.9
2019-03-24T10:46:17.507Z,988.8
2019-03-24T10:47:18.813Z,988.8
2019-03-24T10:48:21.629Z,988.9
2019-03-24T10:49:25.936Z,988.9
2019-03-24T10:50:27.205Z,988.9
2019-03-24T10:51:28.469Z,988.8
2019-03-24T10:52:30.033Z,988.8
2019-03-24T10:53:31.307Z,988.8
2019-03-24T10:54:33.736Z,988.8
2019-03-24T10:55:37.139Z,988.9
2019-03-24T10:56:38.403Z,988.9
2019-03-24T10:57:54.080Z,988.8
2019-03-24T10:58:55.603Z,988.8
2019-03-24T11:00:01.141Z,988.8
2019-03-24T11:01:07.271Z,988.7
2019-03-24T11:02:08.520Z,988.8
2019-03-24T11:03:09.789Z,988.7
2019-03-24T11:04:11.060Z,988.7
2019-03-24T11:05:12.374Z,988.7
2019-03-24T11:06:13.644Z,988.7
2019-03-24T11:07:15.240Z,988.6
2019-03-24T11:08:16.490Z,988.7
2019-03-24T11:09:17.739Z,988.6
2019-03-24T11:10:19.047Z,988.7
2019-03-24T11:11:23.016Z,988.7
2019-03-24T11:12:24.328Z,988.7
2019-03-24T11:13:25.610Z,988.6
2019-03-24T11:14:26.878Z,988.7
2019-03-24T11:15:29.339Z,988.7
2019-03-24T11:16:31.637Z,988.7
2019-03-24T11:17:33.053Z,988.6
2019-03-24T11:18:34.321Z,988.7
2019-03-24T11:19:36.581Z,988.7
2019-03-24T11:20:37.926Z,988.7
2019-03-24T11:21:39.207Z,988.6
2019-03-24T11:22:40.783Z,988.6
2019-03-24T11:23:42.271Z,988.7
2019-03-24T11:24:43.553Z,988.5
2019-03-24T11:25:47.715Z,988.7
2019-03-24T11:26:48.999Z,988.7
2019-03-24T11:27:50.663Z,988.6
2019-03-24T11:28:51.930Z,988.6
2019-03-24T11:29:53.586Z,988.7
2019-03-24T11:30:54.897Z,988.7
2019-03-24T11:31:59.616Z,988.7
2019-03-24T11:33:00.873Z,988.6
2019-03-24T11:34:04.240Z,988.5
2019-03-24T11:35:05.507Z,988.5
2019-03-24T11:36:06.813Z,988.5
2019-03-24T11:37:10.931Z,988.5
2019-03-24T11:38:14.539Z,988.5
2019-03-24T11:39:18.243Z,988.5
2019-03-24T11:40:19.555Z,988.5
2019-03-24T11:41:20.889Z,988.4
2019-03-24T11:42:22.184Z,988.5
2019-03-24T11:43:23.946Z,988.5
2019-03-24T11:44:25.199Z,988.5
2019-03-24T11:45:26.470Z,988.4
2019-03-24T11:46:30.221Z,988.4
2019-03-24T11:47:31.895Z,988.4
2019-03-24T11:48:33.245Z,988.5
2019-03-24T11:49:34.505Z,988.4
2019-03-24T11:50:35.767Z,988.4
2019-03-24T11:51:37.049Z,988.4
2019-03-24T11:52:38.315Z,988.4
2019-03-24T11:53:39.577Z,988.4
2019-03-24T11:54:43.707Z,988.4
2019-03-24T11:55:48.237Z,988.3
2019-03-24T11:56:50.566Z,988.3
2019-03-24T11:57:52.631Z,988.3
2019-03-24T11:58:54.222Z,988.3
2019-03-24T11:59:55.526Z,988.3
2019-03-24T12:00:56.811Z,988.3
2019-03-24T12:01:58.118Z,988.2
2019-03-24T12:02:59.379Z,988.2
2019-03-24T12:04:00.647Z,988
2019-03-24T12:05:01.921Z,988.2
2019-03-24T12:06:15.085Z,988.1
2019-03-24T12:07:16.455Z,988.1
2019-03-24T12:08:18.801Z,988
2019-03-24T12:09:20.069Z,988
2019-03-24T12:10:21.329Z,987.8
2019-03-24T12:11:23.889Z,987.9
2019-03-24T12:12:25.193Z,987.9
2019-03-24T12:13:26.625Z,987.9
2019-03-24T12:14:27.994Z,987.8
2019-03-24T12:15:29.253Z,987.8
2019-03-24T12:16:30.519Z,987.8
2019-03-24T12:17:31.817Z,987.7
2019-03-24T12:18:33.407Z,987.4
2019-03-24T12:19:35.251Z,987.6
2019-03-24T12:20:36.527Z,987.7
2019-03-24T12:21:39.925Z,987.7
2019-03-24T12:22:42.572Z,987.7
2019-03-24T12:23:43.842Z,987.6
2019-03-24T12:24:47.575Z,987.6
2019-03-24T12:25:51.613Z,987.6
2019-03-24T12:26:54.287Z,987.5
2019-03-24T12:27:56.203Z,987.5
2019-03-24T12:28:57.474Z,987.5
2019-03-24T12:29:58.755Z,987.5
2019-03-24T12:31:02.395Z,987.5
2019-03-24T12:32:06.190Z,987.5
2019-03-24T12:33:07.541Z,987.4
2019-03-24T12:34:08.814Z,987.5
2019-03-24T12:35:10.378Z,987.4
2019-03-24T12:36:11.652Z,987.4
2019-03-24T12:37:12.932Z,987.4
2019-03-24T12:38:15.431Z,987.4
2019-03-24T12:39:16.741Z,987.4
2019-03-24T12:40:17.994Z,987.4
2019-03-24T12:41:19.270Z,987.4
2019-03-24T12:42:20.555Z,987.4
2019-03-24T12:43:21.908Z,987.4
2019-03-24T12:44:23.581Z,987.4
2019-03-24T12:45:25.032Z,987.3
2019-03-24T12:46:26.304Z,987.3
2019-03-24T12:47:28.953Z,987.3
2019-03-24T12:48:31.686Z,987.3
2019-03-24T12:49:32.937Z,987.4
2019-03-24T12:50:35.191Z,987.3
2019-03-24T12:51:36.462Z,987.3
2019-03-24T12:52:37.747Z,987.3
2019-03-24T12:53:39.017Z,987.2
2019-03-24T12:54:40.642Z,987.2
2019-03-24T12:55:43.619Z,987.2
2019-03-24T12:56:44.880Z,987.2
2019-03-24T12:57:46.764Z,987.1
2019-03-24T12:58:48.578Z,987.1
2019-03-24T12:59:49.840Z,987.2
2019-03-24T13:00:53.480Z,987.1
2019-03-24T13:01:56.660Z,987.1
2019-03-24T13:03:00.336Z,987.1
2019-03-24T13:04:04.076Z,987.1
2019-03-24T13:05:12.534Z,987
2019-03-24T13:06:16.866Z,986.9
2019-03-24T13:07:20.640Z,987
2019-03-24T13:08:21.918Z,986.8
2019-03-24T13:09:25.523Z,986.9
2019-03-24T13:10:33.414Z,986.9
2019-03-24T13:11:37.571Z,986.8
2019-03-24T13:12:39.215Z,986.9
2019-03-24T13:13:43.738Z,986.8
2019-03-24T13:14:49.467Z,986.9
2019-03-24T13:15:56.244Z,986.8
2019-03-24T13:16:58.720Z,986.8
2019-03-24T13:18:02.234Z,986.8
2019-03-24T13:19:03.764Z,986.8
2019-03-24T13:20:05.086Z,986.7
2019-03-24T13:21:07.556Z,986.8
2019-03-24T13:22:11.181Z,986.7
2019-03-24T13:23:18.671Z,986.7
2019-03-24T13:24:20.145Z,986.7